Time;durP1;ratioP1;P1;durP2;ratioP2;P2;SDS_P1;SDS_P2;PMS_P1;PMS_P2;Temp;Humidity;BMP_temperature;BMP_pressure;BME280_temperature;BME280_humidity;BME280_pressure;Samples;Min_cycle;Max_cycle;Signal;HPM_P1;HPM_P2
2020/12/01 00:00:36;;;;;;;4.90;2.70;;;2.40;99.90;;;;;;5060921;28;20055;-56
2020/12/01 00:03:01;;;;;;;4.95;2.88;;;2.50;99.90;;;;;;5062795;28;20362;-55
2020/12/01 00:05:27;;;;;;;3.58;2.47;;;2.40;99.90;;;;;;5076778;28;20506;-53
2020/12/01 00:07:53;;;;;;;4.38;2.58;;;2.40;99.90;;;;;;5081615;28;20469;-59
2020/12/01 00:10:20;;;;;;;4.97;2.90;;;2.40;99.90;;;;;;5068266;28;20041;-59
2020/12/01 00:12:48;;;;;;;4.68;2.78;;;2.40;99.90;;;;;;5066607;28;20048;-57
2020/12/01 00:15:19;;;;;;;5.35;3.30;;;2.40;99.90;;;;;;5063725;28;20392;-57
2020/12/01 00:17:45;;;;;;;5.45;3.55;;;2.40;99.90;;;;;;5067878;28;20040;-58
2020/12/01 00:20:13;;;;;;;4.93;2.83;;;2.30;99.90;;;;;;5059718;28;20037;-58
2020/12/01 00:22:38;;;;;;;4.80;2.95;;;2.30;99.90;;;;;;5048343;28;20055;-57
2020/12/01 00:25:06;;;;;;;4.70;2.88;;;2.30;99.90;;;;;;5049572;28;20057;-52
2020/12/01 00:27:33;;;;;;;4.70;2.85;;;2.30;99.90;;;;;;5049298;28;20048;-59
2020/12/01 00:29:58;;;;;;;4.72;3.10;;;2.30;99.90;;;;;;5056805;28;20040;-58
2020/12/01 00:32:24;;;;;;;4.32;2.53;;;2.20;99.90;;;;;;5069318;28;20128;-52
2020/12/01 00:34:49;;;;;;;3.80;2.50;;;2.30;99.90;;;;;;5053971;28;20127;-53
2020/12/01 00:37:15;;;;;;;4.65;2.83;;;2.30;99.90;;;;;;5048849;28;20036;-56
2020/12/01 00:39:40;;;;;;;4.00;2.53;;;2.30;99.90;;;;;;5054017;28;20091;-56
2020/12/01 00:42:06;;;;;;;3.85;2.42;;;2.30;99.90;;;;;;5064344;28;20115;-57
2020/12/01 00:44:31;;;;;;;3.38;2.22;;;2.30;99.90;;;;;;5052000;28;20086;-59
2020/12/01 00:46:57;;;;;;;3.75;2.40;;;2.30;99.90;;;;;;5048195;28;20045;-59
2020/12/01 00:49:22;;;;;;;4.43;2.78;;;2.30;99.90;;;;;;5048749;28;20519;-59
2020/12/01 00:51:49;;;;;;;5.82;2.92;;;2.30;99.90;;;;;;5063237;28;20119;-54
2020/12/01 00:54:16;;;;;;;3.72;2.15;;;2.20;99.90;;;;;;5068917;28;20056;-57
2020/12/01 00:56:42;;;;;;;4.65;2.80;;;2.30;99.90;;;;;;5069144;28;20040;-55
2020/12/01 00:59:07;;;;;;;3.03;2.25;;;2.20;99.90;;;;;;5067962;28;20048;-60
2020/12/01 01:01:33;;;;;;;3.60;2.25;;;2.30;99.90;;;;;;5048281;28;20205;-56
2020/12/01 01:03:59;;;;;;;4.38;3.08;;;2.30;99.90;;;;;;5064207;28;20041;-55
2020/12/01 01:06:24;;;;;;;2.88;1.90;;;2.30;99.90;;;;;;5048483;28;20527;-60
2020/12/01 01:08:50;;;;;;;4.03;2.50;;;2.30;99.90;;;;;;5048234;28;20044;-58
2020/12/01 01:11:16;;;;;;;3.97;2.35;;;2.30;99.90;;;;;;5064857;28;20040;-56
2020/12/01 01:13:42;;;;;;;4.40;2.25;;;2.30;99.90;;;;;;5058582;28;20044;-58
2020/12/01 01:16:07;;;;;;;4.10;2.10;;;2.30;99.90;;;;;;5054408;28;20036;-55
2020/12/01 01:18:33;;;;;;;2.90;2.00;;;2.20;99.90;;;;;;5063303;28;20053;-59
2020/12/01 01:20:59;;;;;;;3.63;2.13;;;2.30;99.90;;;;;;5048414;28;20032;-58
2020/12/01 01:23:24;;;;;;;2.72;1.75;;;2.20;99.90;;;;;;5047441;28;20053;-55
2020/12/01 01:25:50;;;;;;;2.92;1.92;;;2.20;99.90;;;;;;5046991;28;20075;-60
2020/12/01 01:28:16;;;;;;;2.28;1.70;;;2.30;99.90;;;;;;5046499;28;20393;-60
2020/12/01 01:30:41;;;;;;;3.33;2.10;;;2.30;99.90;;;;;;5049219;28;20492;-53
2020/12/01 01:33:08;;;;;;;2.72;1.90;;;2.20;99.90;;;;;;5047917;28;20033;-59
2020/12/01 01:35:34;;;;;;;2.88;1.88;;;2.20;99.90;;;;;;5047858;28;20401;-59
2020/12/01 01:38:07;;;;;;;2.70;1.75;;;2.30;99.90;;;;;;5048780;28;20120;-59
2020/12/01 01:40:33;;;;;;;2.03;1.45;;;2.20;99.90;;;;;;5055567;28;20123;-57
2020/12/01 01:43:00;;;;;;;2.30;1.50;;;2.20;99.90;;;;;;5057522;28;20040;-59
2020/12/01 01:45:43;;;;;;;1.92;1.35;;;2.30;99.90;;;;;;5058745;28;20067;-58
2020/12/01 01:48:16;;;;;;;1.55;1.35;;;2.30;99.90;;;;;;5059987;28;20033;-57
2020/12/01 01:50:48;;;;;;;2.17;1.50;;;2.30;99.90;;;;;;5062582;28;20035;-57
2020/12/01 01:53:14;;;;;;;1.83;1.30;;;2.30;99.90;;;;;;5087185;28;20048;-59
2020/12/01 01:55:41;;;;;;;2.00;1.40;;;2.30;99.90;;;;;;5071617;28;20037;-60
2020/12/01 01:58:06;;;;;;;2.00;1.50;;;2.30;99.90;;;;;;5046600;28;20041;-58
2020/12/01 02:00:56;;;;;;;1.90;1.05;;;2.30;99.90;;;;;;5048213;28;20756;-55
2020/12/01 02:03:38;;;;;;;1.85;1.13;;;2.30;99.90;;;;;;5047466;28;20045;-57
2020/12/01 02:06:18;;;;;;;2.13;1.25;;;2.30;99.90;;;;;;5046963;28;20044;-59
2020/12/01 02:08:50;;;;;;;2.28;1.23;;;2.30;99.90;;;;;;5046840;28;20052;-55
2020/12/01 02:11:17;;;;;;;3.35;1.40;;;2.30;99.90;;;;;;5058638;28;20097;-56
2020/12/01 02:13:59;;;;;;;3.05;1.30;;;2.20;99.90;;;;;;5065806;28;20501;-54
2020/12/01 02:16:25;;;;;;;1.58;1.00;;;2.20;99.90;;;;;;5061862;28;20044;-55
2020/12/01 02:18:52;;;;;;;1.80;1.10;;;2.30;99.90;;;;;;5065812;28;20047;-58
2020/12/01 02:21:34;;;;;;;1.75;0.90;;;2.30;99.90;;;;;;5066293;28;20169;-52
2020/12/01 02:24:02;;;;;;;1.55;1.17;;;2.30;99.90;;;;;;5066884;28;20106;-56
2020/12/01 02:26:29;;;;;;;1.95;1.25;;;2.20;99.90;;;;;;5066018;28;20041;-54
2020/12/01 02:28:55;;;;;;;2.03;1.50;;;2.30;99.90;;;;;;5066474;28;20547;-58
2020/12/01 02:31:21;;;;;;;1.75;1.23;;;2.20;99.90;;;;;;5053879;28;20068;-55
2020/12/01 02:33:47;;;;;;;1.70;1.15;;;2.20;99.90;;;;;;5046784;28;20155;-53
2020/12/01 02:36:14;;;;;;;1.73;1.10;;;2.20;99.90;;;;;;5047327;28;20444;-54
2020/12/01 02:38:40;;;;;;;1.92;1.33;;;2.20;99.90;;;;;;5046310;28;20068;-57
2020/12/01 02:41:06;;;;;;;1.65;1.13;;;2.30;99.90;;;;;;5046873;28;20037;-56
2020/12/01 02:43:31;;;;;;;2.92;1.50;;;2.20;99.90;;;;;;5061632;28;20036;-57
2020/12/01 02:45:57;;;;;;;2.67;1.58;;;2.20;99.90;;;;;;5057117;28;20127;-58
2020/12/01 02:48:22;;;;;;;1.80;1.13;;;2.30;99.90;;;;;;5066824;28;20124;-56
2020/12/01 02:50:48;;;;;;;1.88;1.27;;;2.30;99.90;;;;;;5060361;28;20489;-57
2020/12/01 02:53:13;;;;;;;1.48;1.17;;;2.30;99.90;;;;;;5047143;28;20776;-57
2020/12/01 02:55:40;;;;;;;1.90;1.30;;;2.30;99.90;;;;;;5044647;28;20044;-57
2020/12/01 02:58:05;;;;;;;2.17;1.00;;;2.30;99.90;;;;;;5046049;28;20110;-56
2020/12/01 03:00:31;;;;;;;1.42;1.20;;;2.30;99.90;;;;;;5048246;28;20040;-54
2020/12/01 03:02:56;;;;;;;1.50;1.02;;;2.30;99.90;;;;;;5064869;28;20043;-58
2020/12/01 03:05:22;;;;;;;2.00;1.17;;;2.30;99.90;;;;;;5066464;28;20047;-58
2020/12/01 03:07:47;;;;;;;1.67;1.00;;;2.40;99.90;;;;;;5064126;28;20196;-58
2020/12/01 03:10:13;;;;;;;1.98;1.10;;;2.40;99.90;;;;;;5065201;28;20139;-57
2020/12/01 03:12:38;;;;;;;1.77;1.20;;;2.40;99.90;;;;;;5065552;28;20040;-54
2020/12/01 03:15:09;;;;;;;1.50;0.98;;;2.40;99.90;;;;;;5058064;28;20440;-54
2020/12/01 03:17:35;;;;;;;1.13;0.80;;;2.40;99.90;;;;;;5066388;28;20041;-56
2020/12/01 03:20:01;;;;;;;0.75;0.75;;;2.40;99.90;;;;;;5064483;28;20041;-58
2020/12/01 03:22:27;;;;;;;1.45;1.02;;;2.50;99.90;;;;;;5056661;28;20033;-58
2020/12/01 03:24:52;;;;;;;2.45;0.80;;;2.50;99.90;;;;;;5059221;28;20067;-58
2020/12/01 03:27:18;;;;;;;1.25;0.73;;;2.50;99.90;;;;;;5065987;28;20067;-58
2020/12/01 03:29:43;;;;;;;1.40;1.05;;;2.50;99.90;;;;;;5080935;28;20040;-55
2020/12/01 03:32:09;;;;;;;1.20;0.80;;;2.50;99.90;;;;;;5065175;28;20189;-55
2020/12/01 03:34:34;;;;;;;1.25;0.80;;;2.50;99.90;;;;;;5063608;28;20147;-53
2020/12/01 03:37:00;;;;;;;1.33;0.88;;;2.50;99.90;;;;;;5076873;28;20021;-55
2020/12/01 03:39:26;;;;;;;1.42;0.70;;;2.50;99.90;;;;;;5065515;28;20582;-57
2020/12/01 03:41:51;;;;;;;0.77;0.60;;;2.50;99.90;;;;;;5061130;28;20054;-57
2020/12/01 03:44:17;;;;;;;1.00;0.60;;;2.60;99.90;;;;;;5059390;28;20448;-54
2020/12/01 03:46:42;;;;;;;1.15;0.70;;;2.60;99.90;;;;;;5062536;28;20044;-55
2020/12/01 03:49:08;;;;;;;1.25;0.70;;;2.60;99.90;;;;;;5065124;28;20374;-57
2020/12/01 03:51:33;;;;;;;1.13;0.80;;;2.60;99.90;;;;;;5061130;28;20559;-54
2020/12/01 03:53:59;;;;;;;1.20;0.68;;;2.70;99.90;;;;;;5056524;28;20564;-58
2020/12/01 03:56:24;;;;;;;1.35;0.80;;;2.70;99.90;;;;;;5048859;28;20456;-55
2020/12/01 03:58:50;;;;;;;0.63;0.63;;;2.70;99.90;;;;;;5048918;28;20767;-58
2020/12/01 04:01:15;;;;;;;1.27;0.70;;;2.70;99.90;;;;;;5049004;28;20489;-51
2020/12/01 04:03:41;;;;;;;1.55;0.93;;;2.70;99.90;;;;;;5049337;28;20475;-51
2020/12/01 04:06:07;;;;;;;0.70;0.68;;;2.70;99.90;;;;;;5048970;28;20052;-58
2020/12/01 04:08:32;;;;;;;1.33;0.77;;;2.70;99.90;;;;;;5048718;28;20029;-56
2020/12/01 04:11:01;;;;;;;1.77;0.88;;;2.60;99.90;;;;;;5048103;28;20079;-58
2020/12/01 04:13:27;;;;;;;0.95;0.68;;;2.60;99.90;;;;;;5059214;28;20044;-58
2020/12/01 04:15:52;;;;;;;1.40;0.80;;;2.60;99.90;;;;;;5056175;28;20040;-55
2020/12/01 04:18:18;;;;;;;1.02;0.70;;;2.70;99.90;;;;;;5048641;28;20437;-55
2020/12/01 04:20:43;;;;;;;2.47;0.90;;;2.60;99.90;;;;;;5048832;28;20116;-57
2020/12/01 04:23:09;;;;;;;1.48;0.98;;;2.60;99.90;;;;;;5049137;28;20090;-58
2020/12/01 04:25:34;;;;;;;0.90;0.80;;;2.60;99.90;;;;;;5048768;28;20094;-57
2020/12/01 04:28:00;;;;;;;0.77;0.60;;;2.70;99.90;;;;;;5048779;28;20151;-56
2020/12/01 04:30:25;;;;;;;1.08;0.55;;;2.70;99.90;;;;;;5048729;28;20040;-57
2020/12/01 04:32:54;;;;;;;1.35;0.82;;;2.70;99.90;;;;;;5049397;28;20033;-55
2020/12/01 04:35:25;;;;;;;1.17;0.85;;;2.70;99.90;;;;;;5049067;28;20051;-56
2020/12/01 04:37:51;;;;;;;1.17;0.75;;;2.70;99.90;;;;;;5052561;28;20029;-56
2020/12/01 04:40:21;;;;;;;3.85;1.17;;;2.70;99.90;;;;;;5067163;28;20112;-53
2020/12/01 04:42:56;;;;;;;2.17;1.00;;;2.70;99.90;;;;;;5058472;28;20087;-54
2020/12/01 04:45:22;;;;;;;1.10;0.90;;;2.70;99.90;;;;;;5060318;28;20051;-57
2020/12/01 04:48:05;;;;;;;1.63;1.30;;;2.60;99.90;;;;;;5068455;28;20037;-53
2020/12/01 04:50:43;;;;;;;1.73;1.15;;;2.60;99.90;;;;;;5065901;28;20555;-56
2020/12/01 04:53:46;;;;;;;2.88;1.20;;;2.70;99.90;;;;;;5048697;28;20036;-57
2020/12/01 04:56:37;;;;;;;1.05;0.85;;;2.60;99.90;;;;;;5049018;28;20057;-52
2020/12/01 04:59:11;;;;;;;1.90;1.45;;;2.60;99.90;;;;;;5048139;28;20037;-58
2020/12/01 05:02:07;;;;;;;4.75;1.80;;;2.60;99.90;;;;;;5048081;28;20064;-52
2020/12/01 05:04:47;;;;;;;1.83;1.23;;;2.70;99.90;;;;;;5048363;28;20040;-52
2020/12/01 05:07:26;;;;;;;2.10;1.38;;;2.60;99.90;;;;;;5028757;28;20041;-58
2020/12/01 05:09:56;;;;;;;4.63;1.80;;;2.70;99.90;;;;;;5028665;28;20041;-58
2020/12/01 05:12:33;;;;;;;3.35;1.95;;;2.70;99.90;;;;;;5029438;28;20375;-56
2020/12/01 05:15:21;;;;;;;2.35;1.40;;;2.70;99.90;;;;;;5050061;28;20064;-58
2020/12/01 05:18:09;;;;;;;2.75;1.70;;;2.80;99.90;;;;;;5047103;28;20051;-58
2020/12/01 05:21:09;;;;;;;4.10;2.30;;;2.80;99.90;;;;;;5047809;28;20033;-54
2020/12/01 05:23:40;;;;;;;3.88;2.35;;;2.70;99.90;;;;;;5036080;28;20060;-57
2020/12/01 05:26:17;;;;;;;6.35;2.50;;;2.70;99.90;;;;;;5046324;28;20044;-59
2020/12/01 05:28:49;;;;;;;5.03;2.80;;;2.70;99.90;;;;;;5047626;28;20041;-55
2020/12/01 05:31:17;;;;;;;4.18;2.67;;;2.60;99.90;;;;;;5047296;28;20533;-55
2020/12/01 05:33:42;;;;;;;4.38;3.03;;;2.70;99.90;;;;;;5044665;28;20724;-53
2020/12/01 05:36:24;;;;;;;5.22;2.55;;;2.60;99.90;;;;;;5033698;28;20128;-56
2020/12/01 05:39:01;;;;;;;3.88;2.55;;;2.70;99.90;;;;;;5028575;28;20034;-57
2020/12/01 05:41:37;;;;;;;3.83;2.45;;;2.70;99.90;;;;;;5027304;28;20087;-57
2020/12/01 05:44:24;;;;;;;51.78;29.10;;;2.70;99.90;;;;;;5041230;28;20041;-57
2020/12/01 05:47:16;;;;;;;15.05;8.70;;;2.80;99.90;;;;;;5059750;28;20043;-57
2020/12/01 05:49:50;;;;;;;8.65;4.38;;;2.90;99.90;;;;;;5065697;28;20150;-54
2020/12/01 05:52:18;;;;;;;7.32;2.80;;;2.90;99.90;;;;;;5048840;28;20093;-56
2020/12/01 05:54:46;;;;;;;30.83;18.23;;;2.90;99.90;;;;;;5047067;28;20041;-55
2020/12/01 05:57:18;;;;;;;7.25;4.57;;;2.90;99.90;;;;;;5052968;28;20032;-52
2020/12/01 06:00:14;;;;;;;5.32;3.10;;;2.80;99.90;;;;;;5062988;28;20045;-57
2020/12/01 06:03:14;;;;;;;4.28;2.70;;;2.80;99.90;;;;;;5066155;28;20083;-53
2020/12/01 06:05:41;;;;;;;14.38;8.30;;;2.80;99.90;;;;;;5066588;28;20488;-58
2020/12/01 06:08:22;;;;;;;20.27;12.60;;;2.90;99.90;;;;;;5054057;28;20043;-59
2020/12/01 06:10:58;;;;;;;9.10;6.03;;;2.90;99.90;;;;;;5046523;28;20037;-59
2020/12/01 06:13:31;;;;;;;9.50;4.78;;;3.00;99.90;;;;;;5055550;28;20123;-60
2020/12/01 06:16:15;;;;;;;4.82;3.45;;;3.00;99.90;;;;;;5060531;28;20036;-59
2020/12/01 06:18:47;;;;;;;7.75;5.18;;;3.10;99.90;;;;;;5065242;28;20036;-60
2020/12/01 06:21:13;;;;;;;7.00;3.35;;;3.00;99.90;;;;;;5067773;28;20048;-59
2020/12/01 06:23:48;;;;;;;3.88;2.92;;;3.00;99.90;;;;;;5066418;28;20431;-56
2020/12/01 06:26:51;;;;;;;2.88;1.80;;;3.00;99.90;;;;;;5066710;28;20725;-57
2020/12/01 06:30:00;;;;;;;22.45;13.82;;;2.90;99.90;;;;;;5046651;28;20041;-57
2020/12/01 06:32:37;;;;;;;9.32;4.97;;;2.90;99.90;;;;;;5046611;28;20072;-59
2020/12/01 06:35:52;;;;;;;5.35;3.60;;;2.90;99.90;;;;;;5047621;28;20090;-62
2020/12/01 06:38:48;;;;;;;3.85;2.35;;;2.90;99.90;;;;;;5030319;28;20045;-58
2020/12/01 06:41:19;;;;;;;22.25;14.32;;;3.00;99.90;;;;;;5065912;28;20029;-58
2020/12/01 06:43:53;;;;;;;16.48;9.55;;;3.10;99.90;;;;;;5065105;28;20041;-60
2020/12/01 06:46:56;;;;;;;8.23;3.97;;;3.10;99.90;;;;;;5065533;28;20033;-61
2020/12/01 06:52:05;;;;;;;1.25;1.00;;;3.10;99.90;;;;;;5635003;23;20131;-61
2020/12/01 06:54:31;;;;;;;3.70;1.85;;;3.00;99.90;;;;;;4965136;28;20047;-61
2020/12/01 06:57:01;;;;;;;2.70;1.67;;;3.10;99.90;;;;;;4965005;28;20510;-61
2020/12/01 06:59:27;;;;;;;5.32;3.47;;;3.10;99.90;;;;;;4956680;28;20089;-61
2020/12/01 07:01:52;;;;;;;16.02;8.48;;;3.10;99.90;;;;;;4969037;28;20065;-58
2020/12/01 07:04:20;;;;;;;;;;;3.10;99.90;;;;;;4966034;28;20049;-58
2020/12/01 07:06:53;;;;;;;6.47;3.03;;;3.10;99.90;;;;;;4986521;28;19921;-60
2020/12/01 07:09:24;;;;;;;3.70;2.33;;;3.10;99.90;;;;;;4977585;28;20035;-60
2020/12/01 07:12:04;;;;;;;4.75;1.85;;;3.10;99.90;;;;;;4975632;28;20163;-60
2020/12/01 07:14:29;;;;;;;3.40;1.92;;;3.10;99.90;;;;;;4977361;28;20074;-60
2020/12/01 07:16:55;;;;;;;3.17;1.85;;;3.00;99.90;;;;;;4976595;28;20764;-60
2020/12/01 07:19:43;;;;;;;16.90;7.50;;;3.00;99.90;;;;;;4979259;28;20046;-61
2020/12/01 07:22:20;;;;;;;13.45;6.60;;;3.00;99.90;;;;;;4978861;28;20437;-61
2020/12/01 07:24:53;;;;;;;3.58;1.95;;;3.10;99.90;;;;;;4979533;28;20031;-60
2020/12/01 07:27:25;;;;;;;3.75;2.13;;;3.10;99.90;;;;;;4981358;28;20042;-59
2020/12/01 07:30:15;;;;;;;3.58;1.85;;;3.10;99.90;;;;;;4980435;28;20062;-60
2020/12/01 07:33:00;;;;;;;51.53;31.17;;;3.20;99.90;;;;;;4980789;28;20042;-61
2020/12/01 07:35:37;;;;;;;7.68;4.35;;;3.20;99.90;;;;;;4979849;28;20043;-59
2020/12/01 07:38:26;;;;;;;4.70;2.63;;;3.20;99.90;;;;;;4988669;28;20042;-59
2020/12/01 07:40:57;;;;;;;3.67;2.17;;;3.20;99.90;;;;;;5009815;28;20119;-61
2020/12/01 07:43:23;;;;;;;2.22;1.45;;;3.20;99.90;;;;;;4992469;28;20398;-59
2020/12/01 07:45:59;;;;;;;2.78;1.60;;;3.30;99.90;;;;;;4990576;28;20042;-61
2020/12/01 07:48:24;;;;;;;5.38;2.17;;;3.30;99.90;;;;;;4991484;28;20034;-59
2020/12/01 07:50:50;;;;;;;3.25;1.90;;;3.30;99.90;;;;;;4991437;28;20042;-62
2020/12/01 07:53:21;;;;;;;2.22;1.60;;;3.30;99.90;;;;;;4976626;28;20066;-63
2020/12/01 07:55:57;;;;;;;6.00;2.28;;;3.30;99.90;;;;;;5000390;28;20042;-62
2020/12/01 07:58:26;;;;;;;5.45;2.55;;;3.40;99.90;;;;;;4989475;28;20050;-57
2020/12/01 08:00:54;;;;;;;4.35;2.55;;;3.40;99.90;;;;;;4990281;28;20640;-60
2020/12/01 08:03:32;;;;;;;3.40;2.40;;;3.40;99.90;;;;;;4989580;28;20045;-56
2020/12/01 08:06:04;;;;;;;7.32;2.85;;;3.40;99.90;;;;;;4990897;28;20129;-56
2020/12/01 08:08:36;;;;;;;4.25;2.90;;;3.40;99.90;;;;;;4990617;28;20482;-55
2020/12/01 08:11:05;;;;;;;5.60;3.13;;;3.40;99.90;;;;;;4990548;28;20785;-56
2020/12/01 08:13:32;;;;;;;6.20;3.20;;;3.40;99.90;;;;;;4991431;28;20042;-61
2020/12/01 08:16:08;;;;;;;9.90;3.20;;;3.40;99.90;;;;;;4989730;28;20042;-58
2020/12/01 08:18:34;;;;;;;6.22;3.08;;;3.40;99.90;;;;;;4991026;28;20050;-56
2020/12/01 08:20:59;;;;;;;4.50;2.33;;;3.40;99.90;;;;;;4990309;28;20042;-58
2020/12/01 08:23:27;;;;;;;3.50;2.33;;;3.40;99.90;;;;;;4990323;28;20038;-66
2020/12/01 08:26:26;;;;;;;4.10;2.75;;;3.40;99.90;;;;;;4982503;28;20051;-58
2020/12/01 08:29:15;;;;;;;3.33;2.03;;;3.40;99.90;;;;;;4989612;28;20054;-54
2020/12/01 08:32:06;;;;;;;4.13;2.60;;;3.50;99.90;;;;;;4989363;28;20038;-59
2020/12/01 08:34:55;;;;;;;3.28;2.10;;;3.50;99.90;;;;;;4990686;28;20114;-61
2020/12/01 08:37:51;;;;;;;4.22;1.80;;;3.50;99.90;;;;;;4986982;28;20058;-62
2020/12/01 08:40:38;;;;;;;2.07;1.30;;;3.60;99.90;;;;;;4990525;28;20497;-61
2020/12/01 08:43:31;;;;;;;4.20;2.03;;;3.70;99.90;;;;;;5006056;28;20038;-62
2020/12/01 08:46:02;;;;;;;3.65;2.30;;;3.70;99.90;;;;;;5009343;28;20084;-61
2020/12/01 08:48:38;;;;;;;2.55;1.85;;;3.80;99.90;;;;;;5008630;28;20844;-59
2020/12/01 08:51:29;;;;;;;2.08;1.60;;;3.80;99.90;;;;;;5001941;28;20042;-57
2020/12/01 08:54:01;;;;;;;3.33;1.60;;;;;;;;;;4998749;28;20073;-57
2020/12/01 08:56:39;;;;;;;4.30;1.80;;;;;;;;;;4988133;28;20078;-60
2020/12/01 08:59:06;;;;;;;1.80;1.35;;;;;;;;;;4970111;28;21051;-60
2020/12/01 09:01:42;;;;;;;5.20;1.63;;;;;;;;;;4968829;28;20046;-59
2020/12/01 09:04:20;;;;;;;3.90;2.05;;;;;;;;;;4969595;28;20114;-58
2020/12/01 09:06:46;;;;;;;1.13;0.95;;;;;;;;;;4969760;28;20055;-57
2020/12/01 09:09:35;;;;;;;1.55;1.00;;;;;;;;;;4969757;28;20125;-61
2020/12/01 09:15:22;;;;;;;2.40;1.35;;;;;;;;;;4968514;28;20638;-57
2020/12/01 09:23:24;;;;;;;1.70;1.30;;;;;;;;;;4984503;28;20116;-59
2020/12/01 09:25:51;;;;;;;1.85;1.30;;;;;;;;;;4980367;28;20049;-59
2020/12/01 09:28:22;;;;;;;2.25;1.35;;;;;;;;;;4988788;28;20042;-59
2020/12/01 09:30:49;;;;;;;2.25;1.25;;;;;;;;;;4988293;28;20176;-59
2020/12/01 09:33:22;;;;;;;5.97;1.60;;;;;;;;;;4989023;28;20491;-60
2020/12/01 09:35:48;;;;;;;1.80;1.50;;;;;;;;;;4989067;28;20046;-58
2020/12/01 09:38:14;;;;;;;2.92;1.38;;;;;;;;;;4987771;28;20064;-58
2020/12/01 09:40:41;;;;;;;3.05;1.40;;;;;;;;;;4996611;28;20581;-57
2020/12/01 09:43:28;;;;;;;2.50;1.63;;;;;;;;;;5001832;28;20073;-58
2020/12/01 09:45:55;;;;;;;;;;;;;;;;;;5008738;28;20061;-53
2020/12/01 09:48:29;;;;;;;3.97;1.30;;;;;;;;;;5007856;28;20198;-58
2020/12/01 09:50:55;;;;;;;7.95;1.65;;;;;;;;;;5002248;28;20179;-58
2020/12/01 09:56:00;;;;;;;;;;;;;;;;;;4996294;28;20054;-59
2020/12/01 10:08:58;;;;;;;7.30;3.05;;;;;;;;;;4987107;28;20049;-56
2020/12/01 10:14:21;;;;;;;10.38;3.83;;;;;;;;;;4988735;28;20042;-56
2020/12/01 10:35:50;;;;;;;18.85;8.27;;;;;;;;;;4989491;28;20071;-58
2020/12/01 10:38:16;;;;;;;20.17;11.52;;;;;;;;;;4989109;28;20048;-57
2020/12/01 10:40:42;;;;;;;30.98;18.45;;;;;;;;;;4988546;28;20181;-59
2020/12/01 10:43:08;;;;;;;17.13;9.23;;;;;;;;;;5005395;28;20465;-57
2020/12/01 10:45:34;;;;;;;;;;;;;;;;;;5008141;28;20048;-54
2020/12/01 10:48:00;;;;;;;14.25;5.93;;;;;;;;;;5008662;28;19975;-60
2020/12/01 10:50:29;;;;;;;11.23;6.38;;;;;;;;;;5006428;28;20038;-57
2020/12/01 10:52:56;;;;;;;12.50;5.78;;;;;;;;;;4972317;28;20042;-59
2020/12/01 10:55:23;;;;;;;9.20;5.32;;;;;;;;;;4982264;28;20045;-53
2020/12/01 10:57:50;;;;;;;10.13;5.95;;;;;;;;;;4984842;28;20169;-58
2020/12/01 11:00:16;;;;;;;13.02;5.90;;;;;;;;;;4987047;28;20049;-60
2020/12/01 11:02:42;;;;;;;;;;;;;;;;;;4988286;28;20046;-58
2020/12/01 11:05:11;;;;;;;9.77;5.05;;;;;;;;;;4980894;28;19922;-59
2020/12/01 11:07:38;;;;;;;8.93;5.57;;;;;;;;;;4967973;28;20041;-59
2020/12/01 11:10:05;;;;;;;11.68;6.30;;;;;;;;;;4968200;28;20049;-58
2020/12/01 11:12:31;;;;;;;11.15;5.50;;;;;;;;;;4968399;28;20034;-57
2020/12/01 11:14:57;;;;;;;14.10;5.97;;;;;;;;;;4980081;28;20034;-59
2020/12/01 11:17:23;;;;;;;12.38;6.45;;;;;;;;;;4986626;28;20536;-56
2020/12/01 11:19:49;;;;;;;10.70;5.53;;;;;;;;;;4987370;28;20480;-55
2020/12/01 11:22:15;;;;;;;;;;;;;;;;;;4987733;28;20050;-59
2020/12/01 11:24:42;;;;;;;13.93;5.25;;;;;;;;;;4987129;28;19921;-58
2020/12/01 11:27:08;;;;;;;10.55;4.80;;;;;;;;;;4979518;28;20170;-55
2020/12/01 11:29:35;;;;;;;15.23;4.88;;;;;;;;;;4986808;28;20121;-59
2020/12/01 11:32:01;;;;;;;11.13;4.47;;;;;;;;;;4989084;28;20034;-60
2020/12/01 11:34:27;;;;;;;;;;;;;;;;;;4991328;28;20046;-57
2020/12/01 11:36:54;;;;;;;11.50;4.53;;;;;;;;;;4986720;28;19957;-58
2020/12/01 11:39:20;;;;;;;9.25;4.32;;;;;;;;;;4985456;28;20085;-57
2020/12/01 11:41:46;;;;;;;;;;;;;;;;;;4984481;28;20066;-58
2020/12/01 11:44:13;;;;;;;12.15;5.20;;;;;;;;;;4986492;28;19925;-56
2020/12/01 11:46:39;;;;;;;13.45;5.57;;;;;;;;;;4986278;28;20077;-57
2020/12/01 11:49:06;;;;;;;11.38;5.07;;;;;;;;;;4987386;28;20128;-59
2020/12/01 11:51:32;;;;;;;10.30;5.05;;;;;;;;;;4989684;28;20038;-57
2020/12/01 11:53:58;;;;;;;17.77;4.82;;;;;;;;;;4984699;28;20042;-55
2020/12/01 11:56:24;;;;;;;14.50;5.70;;;;;;;;;;4978973;28;20108;-60
2020/12/01 11:58:50;;;;;;;22.58;9.75;;;;;;;;;;4985335;28;20091;-59
2020/12/01 12:01:16;;;;;;;20.58;7.88;;;;;;;;;;4985762;28;20065;-55
2020/12/01 12:03:43;;;;;;;10.50;4.88;;;;;;;;;;4984303;28;20104;-58
2020/12/01 12:06:09;;;;;;;15.23;5.93;;;;;;;;;;4986019;28;20042;-59
2020/12/01 12:08:35;;;;;;;10.07;4.60;;;;;;;;;;4985926;28;20105;-58
2020/12/01 12:11:01;;;;;;;12.07;5.50;;;;;;;;;;4988709;28;20397;-58
2020/12/01 12:13:27;;;;;;;10.10;4.88;;;;;;;;;;4990458;28;20077;-53
2020/12/01 12:15:53;;;;;;;16.50;7.40;;;;;;;;;;4989267;28;20070;-55
2020/12/01 12:18:19;;;;;;;17.67;5.80;;;;;;;;;;4990538;28;20129;-56
2020/12/01 12:20:45;;;;;;;;;;;;;;;;;;4991159;28;20473;-55
2020/12/01 12:23:11;;;;;;;13.00;4.97;;;;;;;;;;4990322;28;19956;-52
2020/12/01 12:25:37;;;;;;;14.43;4.93;;;;;;;;;;4982521;28;20054;-59
2020/12/01 12:28:03;;;;;;;;;;;;;;;;;;4990538;28;20041;-54
2020/12/01 12:30:29;;;;;;;10.95;5.05;;;;;;;;;;4989890;28;19918;-57
2020/12/01 12:32:55;;;;;;;;;;;;;;;;;;4979890;28;20462;-52
2020/12/01 12:35:21;;;;;;;18.80;5.88;;;;;;;;;;4985798;28;20408;-58
2020/12/01 12:37:47;;;;;;;12.75;4.72;;;;;;;;;;4990590;28;20050;-55
2020/12/01 12:40:13;;;;;;;;;;;;;;;;;;4987903;28;20644;-58
2020/12/01 12:42:39;;;;;;;11.75;4.18;;;;;;;;;;5001949;28;20341;-56
2020/12/01 12:45:06;;;;;;;12.75;5.32;;;;;;;;;;4988991;28;20050;-58
2020/12/01 12:47:33;;;;;;;9.85;5.03;;;;;;;;;;4979515;28;20125;-58
2020/12/01 12:49:59;;;;;;;30.65;16.17;;;;;;;;;;4979694;28;20062;-54
2020/12/01 12:52:24;;;;;;;;;;;;;;;;;;4988044;28;20100;-58
2020/12/01 12:54:51;;;;;;;10.32;5.20;;;;;;;;;;4980847;28;19996;-59
2020/12/01 12:57:17;;;;;;;7.63;3.83;;;;;;;;;;4986959;28;20046;-59
2020/12/01 12:59:43;;;;;;;10.88;4.60;;;;;;;;;;4988345;28;20053;-56
2020/12/01 13:02:09;;;;;;;12.10;4.07;;;;;;;;;;4987188;28;20099;-59
2020/12/01 13:04:35;;;;;;;8.35;3.58;;;;;;;;;;4988775;28;20042;-58
2020/12/01 13:07:01;;;;;;;;;;;;;;;;;;4990186;28;20034;-58
2020/12/01 13:09:27;;;;;;;10.85;4.15;;;;;;;;;;4994727;28;19921;-60
2020/12/01 13:11:53;;;;;;;8.43;3.92;;;;;;;;;;5000629;28;20045;-60
2020/12/01 13:14:19;;;;;;;8.80;3.47;;;;;;;;;;4990174;28;20457;-57
2020/12/01 13:16:49;;;;;;;8.10;4.05;;;;;;;;;;4988411;28;20161;-59
2020/12/01 13:19:15;;;;;;;8.25;4.07;;;;;;;;;;4988618;28;20081;-59
2020/12/01 13:21:41;;;;;;;9.13;3.78;;;;;;;;;;4988372;28;20118;-58
2020/12/01 13:24:08;;;;;;;6.35;3.65;;;;;;;;;;4988674;28;20097;-57
2020/12/01 13:26:34;;;;;;;129.85;81.00;;;;;;;;;;4988628;28;20099;-60
2020/12/01 13:29:00;;;;;;;;;;;;;;;;;;4989037;28;20046;-56
2020/12/01 13:31:26;;;;;;;19.83;11.75;;;;;;;;;;4988348;28;20593;-60
2020/12/01 13:33:52;;;;;;;;;;;;;;;;;;4989333;28;20053;-58
2020/12/01 13:36:21;;;;;;;5.65;3.33;;;;;;;;;;4989293;28;20352;-57
2020/12/01 13:38:48;;;;;;;5.20;2.78;;;;;;;;;;4988078;28;20521;-59
2020/12/01 13:41:14;;;;;;;7.38;2.83;;;;;;;;;;4997828;28;20125;-59
2020/12/01 13:43:39;;;;;;;;;;;;;;;;;;4992626;28;20252;-60
2020/12/01 13:46:05;;;;;;;35.60;19.75;;;;;;;;;;4987476;28;19922;-60
2020/12/01 13:48:31;;;;;;;;;;;;;;;;;;4988558;28;20371;-59
2020/12/01 13:50:57;;;;;;;16.02;9.57;;;;;;;;;;4983583;28;19961;-58
2020/12/01 13:53:23;;;;;;;7.25;4.20;;;;;;;;;;4990370;28;20038;-59
2020/12/01 13:55:50;;;;;;;;;;;;;;;;;;4977871;28;20050;-60
2020/12/01 13:58:16;;;;;;;4.53;2.88;;;;;;;;;;4988182;28;19922;-59
2020/12/01 14:00:41;;;;;;;;;;;;;;;;;;4988156;28;20134;-56
2020/12/01 14:03:08;;;;;;;3.88;1.70;;;;;;;;;;4988688;28;19922;-57
2020/12/01 14:05:34;;;;;;;4.78;2.63;;;;;;;;;;4988621;28;20046;-56
2020/12/01 14:08:01;;;;;;;;;;;;;;;;;;4987929;28;20042;-58
2020/12/01 14:10:27;;;;;;;5.53;2.80;;;;;;;;;;4988326;28;19917;-56
2020/12/01 14:12:53;;;;;;;8.30;1.67;;;;;;;;;;4988159;28;20050;-59
2020/12/01 14:15:19;;;;;;;2.65;1.83;;;;;;;;;;4987210;28;20034;-56
2020/12/01 14:17:45;;;;;;;;;;;;;;;;;;4988538;28;20453;-59
2020/12/01 14:20:13;;;;;;;2.75;1.30;;;;;;;;;;4988044;28;19918;-59
2020/12/01 14:22:39;;;;;;;3.03;1.30;;;;;;;;;;4987683;28;20037;-58
2020/12/01 14:25:07;;;;;;;4.05;1.23;;;;;;;;;;4985041;28;20045;-57
2020/12/01 14:27:33;;;;;;;3.45;1.00;;;;;;;;;;4983235;28;20134;-59
2020/12/01 14:29:59;;;;;;;1.52;1.00;;;;;;;;;;4987736;28;20089;-57
2020/12/01 14:32:24;;;;;;;;;;;;;;;;;;4987531;28;20038;-58
2020/12/01 14:34:50;;;;;;;2.45;1.52;;;;;;;;;;4986114;28;20476;-59
2020/12/01 14:37:17;;;;;;;2.90;1.38;;;;;;;;;;4987885;28;20042;-59
2020/12/01 14:39:44;;;;;;;3.45;1.23;;;;;;;;;;4987328;28;20046;-57